Time;durP1;ratioP1;P1;durP2;ratioP2;P2;SDS_P1;SDS_P2;PMS_P1;PMS_P2;Temp;Humidity;BMP_temperature;BMP_pressure;BME280_temperature;BME280_humidity;BME280_pressure;Samples;Min_cycle;Max_cycle;Signal;HPM_P1;HPM_P2
2023/03/27 00:00:11;;;;;;;;;;;3.60;85.90;;;;;;5136035;28;20420;-70
2023/03/27 00:02:37;;;;;;;;;;;3.60;85.90;;;;;;5135766;28;19972;-70
2023/03/27 00:05:04;;;;;;;;;;;3.50;85.90;;;;;;5135964;28;20408;-70
2023/03/27 00:07:29;;;;;;;;;;;3.60;86.00;;;;;;5135638;28;19915;-70
2023/03/27 00:09:56;;;;;;;;;;;3.40;85.90;;;;;;5135458;28;19965;-71
2023/03/27 00:12:21;;;;;;;;;;;3.40;86.00;;;;;;5135472;28;19915;-70
2023/03/27 00:14:47;;;;;;;;;;;3.30;86.00;;;;;;5135424;28;19922;-70
2023/03/27 00:17:13;;;;;;;;;;;3.30;86.00;;;;;;5134896;27;19957;-70
2023/03/27 00:19:38;;;;;;;;;;;3.40;86.10;;;;;;5134778;28;19919;-70
2023/03/27 00:22:04;;;;;;;;;;;3.30;86.20;;;;;;5135068;28;19919;-70
2023/03/27 00:24:30;;;;;;;;;;;3.30;86.30;;;;;;5135169;28;19915;-70
2023/03/27 00:26:55;;;;;;;;;;;3.30;86.30;;;;;;5135146;28;19912;-70
2023/03/27 00:29:21;;;;;;;;;;;3.20;86.30;;;;;;5134957;28;19948;-70
2023/03/27 00:31:46;;;;;;;;;;;3.20;86.20;;;;;;5135044;28;19918;-70
2023/03/27 00:34:12;;;;;;;;;;;3.20;86.30;;;;;;5134973;28;20014;-70
2023/03/27 00:36:37;;;;;;;;;;;3.20;86.30;;;;;;5135124;28;19915;-70
2023/03/27 00:39:03;;;;;;;;;;;3.20;86.40;;;;;;5134994;28;20265;-70
2023/03/27 00:41:29;;;;;;;;;;;3.10;86.40;;;;;;5134926;28;19925;-69
2023/03/27 00:43:57;;;;;;;;;;;3.10;86.40;;;;;;5134915;28;19915;-70
2023/03/27 00:46:34;;;;;;;;;;;3.10;86.40;;;;;;5134911;28;19922;-70
2023/03/27 00:49:02;;;;;;;;;;;3.10;86.30;;;;;;5134861;28;19966;-70
2023/03/27 00:51:28;;;;;;;;;;;3.10;86.40;;;;;;5134865;28;19916;-70
2023/03/27 00:53:55;;;;;;;;;;;3.00;86.30;;;;;;5134815;28;20018;-70
2023/03/27 00:56:20;;;;;;;;;;;3.00;86.30;;;;;;5134813;28;19915;-70
2023/03/27 00:58:50;;;;;;;;;;;3.00;86.30;;;;;;5115196;28;19916;-70
2023/03/27 01:01:16;;;;;;;;;;;3.00;86.40;;;;;;5134948;28;19920;-70
2023/03/27 01:03:43;;;;;;;;;;;2.90;86.40;;;;;;5134733;28;19919;-70
2023/03/27 01:06:09;;;;;;;;;;;3.00;86.50;;;;;;5134697;28;19912;-70
2023/03/27 01:08:36;;;;;;;;;;;2.90;86.40;;;;;;5115255;28;20014;-70
2023/03/27 01:11:15;;;;;;;;;;;2.90;86.40;;;;;;5134394;28;20003;-70
2023/03/27 01:13:51;;;;;;;;;;;3.00;86.40;;;;;;5134353;28;19915;-70
2023/03/27 01:16:21;;;;;;;;;;;2.90;86.40;;;;;;5134324;28;19915;-70
2023/03/27 01:18:53;;;;;;;;;;;3.00;86.50;;;;;;5114154;28;19919;-71
2023/03/27 01:21:38;;;;;;;;;;;2.90;86.50;;;;;;5134293;28;20003;-70
2023/03/27 01:24:24;;;;;;;;;;;2.80;86.50;;;;;;5134233;28;19968;-70
2023/03/27 01:27:09;;;;;;;;;;;2.80;86.50;;;;;;5131408;28;19915;-70
2023/03/27 01:29:39;;;;;;;;;;;2.70;86.50;;;;;;5130548;27;19915;-69
2023/03/27 01:32:15;;;;;;;;;;;2.70;86.70;;;;;;5134120;28;19922;-70
2023/03/27 01:34:53;;;;;;;;;;;2.70;86.70;;;;;;5134032;28;19976;-71
2023/03/27 01:37:37;;;;;;;;;;;2.70;86.80;;;;;;5134523;28;19916;-68
2023/03/27 01:40:06;;;;;;;;;;;2.70;86.80;;;;;;5115530;28;20386;-70
2023/03/27 01:42:41;;;;;;;;;;;2.70;86.70;;;;;;5134056;28;20053;-71
2023/03/27 01:45:09;;;;;;;;;;;2.70;86.60;;;;;;5134059;28;20372;-70
2023/03/27 01:47:41;;;;;;;;;;;2.80;86.70;;;;;;5133633;28;19922;-70
2023/03/27 01:50:14;;;;;;;;;;;2.70;86.80;;;;;;5133943;28;19946;-70
2023/03/27 01:52:40;;;;;;;;;;;2.70;86.80;;;;;;5134009;28;19916;-70
2023/03/27 01:55:10;;;;;;;;;;;2.70;86.70;;;;;;5115150;28;19915;-70
2023/03/27 01:57:40;;;;;;;;;;;2.80;86.60;;;;;;5133754;28;19964;-70
2023/03/27 02:00:16;;;;;;;;;;;2.70;86.50;;;;;;5133650;28;20022;-70
2023/03/27 02:02:59;;;;;;;;;;;2.90;86.50;;;;;;5133715;28;20388;-70
2023/03/27 02:05:30;;;;;;;;;;;2.80;86.40;;;;;;5133539;28;19916;-70
2023/03/27 02:08:04;;;;;;;;;;;2.80;86.30;;;;;;5133700;28;19926;-70
2023/03/27 02:10:32;;;;;;;;;;;2.90;86.30;;;;;;5133741;28;19985;-70
2023/03/27 02:13:00;;;;;;;;;;;3.00;86.20;;;;;;5113275;28;20453;-70
2023/03/27 02:15:29;;;;;;;;;;;2.90;86.10;;;;;;5133694;28;19922;-70
2023/03/27 02:18:04;;;;;;;;;;;3.00;86.00;;;;;;5114580;28;20410;-70
2023/03/27 02:20:30;;;;;;;;;;;3.10;85.90;;;;;;5133509;28;19919;-70
2023/03/27 02:22:59;;;;;;;;;;;3.10;85.60;;;;;;5133464;28;19976;-70
2023/03/27 02:25:41;;;;;;;;;;;3.20;85.30;;;;;;5133412;28;19915;-70
2023/03/27 02:28:14;;;;;;;;;;;3.20;85.20;;;;;;5133358;28;19916;-70
2023/03/27 02:30:53;;;;;;;;;;;3.30;85.00;;;;;;5133884;28;20365;-70
2023/03/27 02:33:26;;;;;;;;;;;3.30;85.00;;;;;;5111825;28;19923;-70
2023/03/27 02:35:57;;;;;;;;;;;3.30;85.10;;;;;;5112245;28;19915;-70
2023/03/27 02:38:29;;;;;;;;;;;3.20;85.00;;;;;;5130515;28;19941;-70
2023/03/27 02:41:02;;;;;;;;;;;3.20;85.10;;;;;;5113043;28;19924;-70
2023/03/27 02:43:31;;;;;;;;;;;3.30;85.10;;;;;;5136819;28;19938;-70
2023/03/27 02:46:00;;;;;;;;;;;3.20;85.10;;;;;;5137123;28;19915;-70
2023/03/27 02:48:34;;;;;;;;;;;3.20;85.10;;;;;;5136801;28;19965;-70
2023/03/27 02:51:10;;;;;;;;;;;3.20;85.20;;;;;;5136737;28;20292;-69
2023/03/27 02:53:37;;;;;;;;;;;3.20;85.30;;;;;;5136616;28;19916;-70
2023/03/27 02:56:04;;;;;;;;;;;3.20;85.40;;;;;;5136644;28;19964;-70
2023/03/27 02:58:35;;;;;;;;;;;3.10;85.40;;;;;;5136645;28;19916;-70
2023/03/27 03:01:01;;;;;;;;;;;3.10;85.60;;;;;;5117375;28;19927;-70
2023/03/27 03:03:30;;;;;;;;;;;3.10;85.60;;;;;;5136666;28;19915;-70
2023/03/27 03:05:56;;;;;;;;;;;3.10;85.70;;;;;;5114915;28;20316;-70
2023/03/27 03:08:22;;;;;;;;;;;3.00;85.70;;;;;;5137189;28;20019;-70
2023/03/27 03:10:48;;;;;;;;;;;3.00;85.80;;;;;;5117383;28;19955;-70
2023/03/27 03:13:14;;;;;;;;;;;3.00;85.90;;;;;;5136967;28;20006;-70
2023/03/27 03:15:40;;;;;;;;;;;3.00;86.60;;;;;;5136493;28;20357;-70
2023/03/27 03:18:06;;;;;;;;;;;2.90;86.10;;;;;;5136346;28;19969;-70
2023/03/27 03:20:33;;;;;;;;;;;2.90;86.20;;;;;;5116662;28;19920;-70
2023/03/27 03:22:59;;;;;;;;;;;2.90;86.20;;;;;;5136270;28;20001;-68
2023/03/27 03:25:24;;;;;;;;;;;2.90;86.20;;;;;;5136243;28;19981;-70
2023/03/27 03:27:56;;;;;;;;;;;3.00;86.40;;;;;;5136103;28;19923;-70
2023/03/27 03:30:26;;;;;;;;;;;2.80;86.40;;;;;;5136049;28;19915;-69
2023/03/27 03:32:53;;;;;;;;;;;2.80;86.50;;;;;;5116874;28;19916;-70
2023/03/27 03:35:20;;;;;;;;;;;2.70;86.50;;;;;;5136140;28;19938;-70
2023/03/27 03:37:49;;;;;;;;;;;2.70;86.60;;;;;;5136040;28;19915;-70
2023/03/27 03:40:15;;;;;;;;;;;2.70;86.70;;;;;;5117692;28;19923;-70
2023/03/27 03:42:44;;;;;;;;;;;2.70;86.70;;;;;;5135865;28;19951;-70
2023/03/27 03:45:10;;;;;;;;;;;2.70;86.70;;;;;;5116660;28;20265;-70
2023/03/27 03:47:35;;;;;;;;;;;2.80;86.60;;;;;;5135798;28;19919;-70
2023/03/27 03:50:01;;;;;;;;;;;2.80;86.60;;;;;;5135848;28;19920;-70
2023/03/27 03:52:26;;;;;;;;;;;2.80;86.50;;;;;;5134571;27;19980;-70
2023/03/27 03:54:52;;;;;;;;;;;2.90;86.50;;;;;;5135701;28;20310;-70
2023/03/27 03:57:18;;;;;;;;;;;2.90;86.30;;;;;;5135792;28;19958;-70
2023/03/27 03:59:43;;;;;;;;;;;2.90;86.20;;;;;;5135773;28;19919;-70
2023/03/27 04:02:11;;;;;;;;;;;3.00;86.10;;;;;;5135813;28;20033;-70
2023/03/27 04:04:36;;;;;;;;;;;3.00;86.00;;;;;;5135980;28;20317;-70
2023/03/27 04:07:04;;;;;;;;;;;3.00;85.90;;;;;;5117148;28;19915;-70
2023/03/27 04:09:30;;;;;;;;;;;3.00;85.80;;;;;;5135993;28;19915;-70
2023/03/27 04:11:55;;;;;;;;;;;3.10;85.70;;;;;;5135803;28;19920;-69
2023/03/27 04:14:21;;;;;;;;;;;3.10;85.60;;;;;;5135832;28;19916;-69
2023/03/27 04:16:46;;;;;;;;;;;3.10;85.60;;;;;;5116579;28;19922;-69
2023/03/27 04:19:12;;;;;;;;;;;3.10;85.60;;;;;;5135684;28;19927;-69
2023/03/27 04:21:37;;;;;;;;;;;3.00;85.60;;;;;;5135473;28;20332;-69
2023/03/27 04:24:03;;;;;;;;;;;3.00;85.60;;;;;;5135557;28;19973;-69
2023/03/27 04:26:29;;;;;;;;;;;2.90;85.70;;;;;;5135561;28;19911;-69
2023/03/27 04:28:54;;;;;;;;;;;2.90;85.80;;;;;;5135534;28;19915;-68
2023/03/27 04:31:20;;;;;;;;;;;3.00;86.00;;;;;;5135698;28;19922;-68
2023/03/27 04:33:50;;;;;;;;;;;2.80;86.00;;;;;;5135958;28;20387;-69
2023/03/27 04:36:16;;;;;;;;;;;2.80;86.20;;;;;;5135686;28;20017;-69
2023/03/27 04:38:42;;;;;;;;;;;2.80;86.30;;;;;;5136107;28;20391;-69
2023/03/27 04:41:07;;;;;;;;;;;2.70;86.50;;;;;;5135438;28;19928;-69
2023/03/27 04:43:38;;;;;;;;;;;2.70;86.60;;;;;;5116316;28;19919;-68
2023/03/27 04:46:05;;;;;;;;;;;2.60;86.80;;;;;;5135316;28;19980;-68
2023/03/27 04:48:31;;;;;;;;;;;2.60;86.90;;;;;;5135299;28;20254;-68
2023/03/27 04:50:57;;;;;;;;;;;2.60;87.00;;;;;;5135551;28;19922;-69
2023/03/27 04:53:22;;;;;;;;;;;2.50;87.10;;;;;;5135142;28;20337;-68
2023/03/27 04:55:49;;;;;;;;;;;2.50;87.20;;;;;;5135210;28;20018;-69
2023/03/27 04:58:16;;;;;;;;;;;2.50;87.30;;;;;;5135016;28;19919;-69
2023/03/27 05:00:48;;;;;;;;;;;2.40;87.40;;;;;;5134996;28;19923;-69
2023/03/27 05:03:16;;;;;;;;;;;2.40;87.50;;;;;;5134993;28;19921;-69
2023/03/27 05:05:42;;;;;;;;;;;2.40;87.60;;;;;;5134919;28;19923;-68
2023/03/27 05:08:08;;;;;;;;;;;2.30;87.50;;;;;;5115262;28;19915;-68
2023/03/27 05:10:33;;;;;;;;;;;2.40;87.80;;;;;;5134881;28;20317;-68
2023/03/27 05:12:59;;;;;;;;;;;2.30;87.80;;;;;;5134775;28;19927;-68
2023/03/27 05:15:24;;;;;;;;;;;2.30;88.40;;;;;;5099341;28;20368;-69
2023/03/27 05:17:53;;;;;;;;;;;2.20;87.80;;;;;;5134840;28;20007;-69
2023/03/27 05:20:19;;;;;;;;;;;2.20;87.90;;;;;;5134564;28;20394;-68
2023/03/27 05:22:45;;;;;;;;;;;2.20;88.00;;;;;;5116289;28;20376;-68
2023/03/27 05:25:12;;;;;;;;;;;2.20;88.60;;;;;;5134624;28;19923;-69
2023/03/27 05:27:42;;;;;;;;;;;2.30;88.10;;;;;;5114588;28;20269;-69
2023/03/27 05:30:08;;;;;;;;;;;2.10;88.60;;;;;;5112919;28;19915;-69
2023/03/27 05:32:34;;;;;;;;;;;2.10;88.20;;;;;;5134554;28;19915;-68
2023/03/27 05:35:00;;;;;;;;;;;2.10;88.20;;;;;;5134558;28;19916;-68
2023/03/27 05:37:26;;;;;;;;;;;2.10;88.20;;;;;;5134889;28;20360;-69
2023/03/27 05:39:51;;;;;;;;;;;2.10;88.20;;;;;;5115878;28;19967;-69
2023/03/27 05:42:17;;;;;;;;;;;2.10;88.20;;;;;;5134286;28;19927;-69
2023/03/27 05:44:42;;;;;;;;;;;2.00;88.20;;;;;;5134406;28;20369;-68
2023/03/27 05:47:09;;;;;;;;;;;2.00;88.20;;;;;;5134261;28;20349;-69
2023/03/27 05:49:35;;;;;;;;;;;1.90;88.20;;;;;;5134274;28;19940;-69
2023/03/27 05:52:00;;;;;;;;;;;2.00;88.30;;;;;;5134115;28;19924;-68
2023/03/27 05:54:26;;;;;;;;;;;2.10;88.20;;;;;;5134754;28;19922;-69
2023/03/27 05:56:51;;;;;;;;;;;2.00;88.20;;;;;;5134111;28;19926;-69
2023/03/27 05:59:18;;;;;;;;;;;2.00;88.10;;;;;;5134033;28;19916;-69
2023/03/27 06:01:43;;;;;;;;;;;2.10;88.20;;;;;;5134088;28;19925;-69
2023/03/27 06:04:09;;;;;;;;;;;2.10;88.20;;;;;;5133982;28;20288;-68
2023/03/27 06:06:35;;;;;;;;;;;2.20;88.10;;;;;;5134650;28;19916;-69
2023/03/27 06:09:01;;;;;;;;;;;2.20;88.10;;;;;;5134144;28;19921;-69
2023/03/27 06:11:26;;;;;;;;;;;2.10;88.00;;;;;;5133947;28;19915;-69
2023/03/27 06:13:52;;;;;;;;;;;2.10;87.90;;;;;;5133882;28;20372;-69
2023/03/27 06:16:19;;;;;;;;;;;2.20;87.90;;;;;;5132819;27;19922;-68
2023/03/27 06:18:45;;;;;;;;;;;2.20;87.80;;;;;;5133875;28;19915;-69
2023/03/27 06:21:11;;;;;;;;;;;2.20;87.70;;;;;;5133968;28;19927;-68
2023/03/27 06:23:37;;;;;;;;;;;2.20;87.70;;;;;;5133669;28;19938;-69
2023/03/27 06:26:02;;;;;;;;;;;2.30;87.60;;;;;;5133563;28;19916;-69
2023/03/27 06:28:28;;;;;;;;;;;2.40;87.60;;;;;;5133626;28;19927;-70
2023/03/27 06:30:56;;;;;;;;;;;2.40;87.50;;;;;;5133720;28;19981;-70
2023/03/27 06:33:24;;;;;;;;;;;2.60;87.50;;;;;;5133807;28;20334;-70
2023/03/27 06:35:50;;;;;;;;;;;2.50;87.40;;;;;;5098406;28;19968;-70
2023/03/27 06:38:17;;;;;;;;;;;2.60;87.30;;;;;;5098085;28;19911;-69
2023/03/27 06:40:43;;;;;;;;;;;2.60;87.20;;;;;;5133399;28;19916;-69
2023/03/27 06:43:09;;;;;;;;;;;2.60;87.00;;;;;;5133492;28;19915;-69
2023/03/27 06:45:42;;;;;;;;;;;2.70;86.90;;;;;;5133341;28;19965;-69
2023/03/27 06:48:08;;;;;;;;;;;2.80;86.80;;;;;;5133277;28;19916;-69
2023/03/27 06:50:34;;;;;;;;;;;2.80;86.70;;;;;;5133398;28;19922;-69
2023/03/27 06:52:59;;;;;;;;;;;2.80;86.60;;;;;;5133236;28;19916;-69
2023/03/27 06:55:28;;;;;;;;;;;2.90;86.60;;;;;;5133423;28;20408;-70
2023/03/27 06:57:55;;;;;;;;;;;2.90;86.50;;;;;;5129870;28;20030;-69
2023/03/27 07:00:23;;;;;;;;;;;3.10;86.50;;;;;;5133722;28;19958;-69
2023/03/27 07:02:52;;;;;;;;;;;3.10;86.40;;;;;;5114421;28;19942;-69
2023/03/27 07:05:17;;;;;;;;;;;3.40;86.30;;;;;;5115216;28;20059;-70
2023/03/27 07:07:43;;;;;;;;;;;3.30;86.10;;;;;;5133850;28;19968;-69
2023/03/27 07:10:09;;;;;;;;;;;3.30;86.00;;;;;;5133261;28;19960;-69
2023/03/27 07:12:35;;;;;;;;;;;3.40;86.00;;;;;;5133212;28;19919;-69
2023/03/27 07:15:00;;;;;;;;;;;3.50;85.90;;;;;;5133151;28;19938;-69
2023/03/27 07:17:26;;;;;;;;;;;3.50;85.80;;;;;;5079007;28;20025;-69
2023/03/27 07:19:52;;;;;;;;;;;3.60;85.80;;;;;;5114064;28;19923;-69
2023/03/27 07:22:18;;;;;;;;;;;3.60;85.70;;;;;;5096440;28;19926;-70
2023/03/27 07:24:43;;;;;;;;;;;3.70;85.70;;;;;;5112861;28;19916;-69
2023/03/27 07:27:09;;;;;;;;;;;3.80;85.50;;;;;;5133786;27;19915;-69
2023/03/27 07:29:36;;;;;;;;;;;3.80;85.40;;;;;;5136568;28;20429;-69
2023/03/27 07:32:01;;;;;;;;;;;3.90;85.30;;;;;;5136404;28;19915;-69
2023/03/27 07:34:27;;;;;;;;;;;4.00;85.30;;;;;;5136521;28;20357;-69
2023/03/27 07:36:53;;;;;;;;;;;4.10;85.10;;;;;;5136378;28;19916;-69
2023/03/27 07:39:19;;;;;;;;;;;4.10;85.00;;;;;;5136406;28;19923;-69
2023/03/27 07:41:44;;;;;;;;;;;4.20;84.90;;;;;;5136371;28;19919;-69
2023/03/27 07:44:10;;;;;;;;;;;4.30;84.80;;;;;;5136358;28;19938;-69
2023/03/27 07:46:36;;;;;;;;;;;4.40;84.80;;;;;;5136348;28;19938;-68
2023/03/27 07:49:02;;;;;;;;;;;4.50;84.70;;;;;;5136391;28;19915;-69
2023/03/27 07:51:27;;;;;;;;;;;4.50;84.60;;;;;;5136531;28;20441;-69
2023/03/27 07:53:54;;;;;;;;;;;4.60;84.50;;;;;;5136154;28;19939;-69
2023/03/27 07:56:20;;;;;;;;;;;4.60;84.40;;;;;;5136179;28;19919;-69
2023/03/27 07:58:46;;;;;;;;;;;4.70;84.40;;;;;;5136106;28;19915;-69
2023/03/27 08:01:12;;;;;;;;;;;4.80;84.30;;;;;;5135824;28;19920;-69
2023/03/27 08:03:37;;;;;;;;;;;4.90;84.20;;;;;;5116067;28;19954;-69
2023/03/27 08:06:03;;;;;;;;;;;5.00;84.10;;;;;;5135898;28;20006;-69
2023/03/27 08:08:29;;;;;;;;;;;5.00;83.90;;;;;;5135856;28;19958;-69
2023/03/27 08:10:55;;;;;;;;;;;5.30;84.00;;;;;;5117581;28;20321;-69
2023/03/27 08:13:21;;;;;;;;;;;5.40;83.90;;;;;;5135889;28;19967;-69
2023/03/27 08:15:47;;;;;;;;;;;5.50;83.60;;;;;;5135868;28;19915;-69
2023/03/27 08:18:12;;;;;;;;;;;5.60;83.60;;;;;;5117387;28;19922;-69
2023/03/27 08:20:38;;;;;;;;;;;5.70;83.50;;;;;;5135735;28;19915;-69
2023/03/27 08:23:03;;;;;;;;;;;5.70;83.30;;;;;;5117205;28;20006;-69
2023/03/27 08:25:32;;;;;;;;;;;5.80;83.20;;;;;;5116293;28;19939;-69
2023/03/27 08:27:58;;;;;;;;;;;6.00;83.20;;;;;;5116181;28;19916;-69
2023/03/27 08:30:23;;;;;;;;;;;6.10;83.10;;;;;;5117365;28;19922;-69
2023/03/27 08:32:50;;;;;;;;;;;6.30;83.00;;;;;;5135547;28;19916;-70
2023/03/27 08:35:15;;;;;;;;;;;6.30;82.90;;;;;;5117217;28;19923;-69
2023/03/27 08:37:42;;;;;;;;;;;6.40;82.90;;;;;;5135477;28;19915;-70
2023/03/27 08:40:22;;;;;;;;;;;6.50;83.60;;;;;;5134464;27;20387;-69
2023/03/27 08:42:51;;;;;;;;;;;6.80;83.10;;;;;;5135102;28;19963;-69
2023/03/27 08:45:23;;;;;;;;;;;7.00;82.70;;;;;;5099884;28;19915;-69
2023/03/27 08:47:52;;;;;;;;;;;7.10;82.20;;;;;;5135204;28;19964;-70
2023/03/27 08:50:30;;;;;;;;;;;7.10;81.90;;;;;;5135147;28;19915;-70
2023/03/27 08:52:58;;;;;;;;;;;7.00;82.00;;;;;;5135272;28;19919;-70
2023/03/27 08:55:31;;;;;;;;;;;6.90;82.00;;;;;;5116597;28;19916;-70
2023/03/27 08:57:56;;;;;;;;;;;6.80;82.10;;;;;;5117542;28;19920;-69
2023/03/27 09:00:25;;;;;;;;;;;6.70;82.10;;;;;;5135745;28;20428;-69
2023/03/27 09:02:59;;;;;;;;;;;6.40;82.40;;;;;;5135440;28;19985;-69
2023/03/27 09:05:33;;;;;;;;;;;6.20;83.00;;;;;;5116617;28;19923;-69
2023/03/27 09:08:14;;;;;;;;;;;6.00;83.80;;;;;;5116831;28;19915;-69
2023/03/27 09:10:44;;;;;;;;;;;5.90;84.30;;;;;;5135128;28;19915;-69
2023/03/27 09:13:25;;;;;;;;;;;5.90;84.80;;;;;;5099193;28;19980;-69
2023/03/27 09:15:57;;;;;;;;;;;5.90;84.60;;;;;;5132633;28;19922;-70
2023/03/27 09:18:26;;;;;;;;;;;5.80;84.60;;;;;;5115596;28;19916;-71
2023/03/27 09:20:55;;;;;;;;;;;5.70;85.00;;;;;;5096446;28;19915;-71
2023/03/27 09:23:24;;;;;;;;;;;5.80;85.50;;;;;;5134918;28;19915;-71
2023/03/27 09:25:52;;;;;;;;;;;5.80;85.30;;;;;;5115109;28;19946;-71
2023/03/27 09:28:19;;;;;;;;;;;6.10;85.30;;;;;;5112763;28;19923;-70
2023/03/27 09:30:45;;;;;;;;;;;6.20;84.90;;;;;;5116224;28;19915;-70
2023/03/27 09:33:11;;;;;;;;;;;6.40;84.60;;;;;;5115425;28;19922;-69
2023/03/27 09:35:37;;;;;;;;;;;6.50;84.30;;;;;;5134512;28;19922;-69
2023/03/27 09:38:09;;;;;;;;;;;6.70;84.20;;;;;;5134426;28;19922;-69
2023/03/27 09:40:42;;;;;;;;;;;6.90;83.70;;;;;;5114275;28;19963;-69
2023/03/27 09:43:13;;;;;;;;;;;7.00;83.50;;;;;;5134807;28;19955;-70
2023/03/27 09:45:40;;;;;;;;;;;7.30;83.20;;;;;;5134331;28;19941;-69
2023/03/27 09:48:10;;;;;;;;;;;7.50;82.60;;;;;;5114093;28;19916;-69
2023/03/27 09:50:41;;;;;;;;;;;7.50;82.00;;;;;;5134247;27;19946;-69
2023/03/27 09:53:12;;;;;;;;;;;7.50;81.80;;;;;;5116286;28;19975;-68
2023/03/27 09:55:49;;;;;;;;;;;7.30;81.70;;;;;;5134331;28;19978;-69
2023/03/27 09:58:20;;;;;;;;;;;7.20;81.90;;;;;;5114979;28;19915;-69
2023/03/27 10:00:45;;;;;;;;;;;7.10;82.40;;;;;;5134040;28;19964;-69
2023/03/27 10:03:13;;;;;;;;;;;7.30;82.70;;;;;;5134336;28;19919;-70
2023/03/27 10:05:40;;;;;;;;;;;7.40;82.30;;;;;;5115729;28;19958;-69
2023/03/27 10:08:19;;;;;;;;;;;7.60;82.10;;;;;;5133926;28;19968;-69
2023/03/27 10:10:53;;;;;;;;;;;7.80;81.50;;;;;;5134036;28;20369;-68
2023/03/27 10:13:20;;;;;;;;;;;7.90;80.50;;;;;;5133905;28;19958;-68
2023/03/27 10:15:46;;;;;;;;;;;7.70;80.00;;;;;;5133943;28;19921;-69
2023/03/27 10:18:21;;;;;;;;;;;7.40;80.40;;;;;;5113777;28;19918;-69
2023/03/27 10:20:49;;;;;;;;;;;7.00;81.00;;;;;;5133714;28;19922;-69
2023/03/27 10:23:31;;;;;;;;;;;6.70;82.00;;;;;;5113817;28;19916;-70
2023/03/27 10:25:59;;;;;;;;;;;6.40;83.00;;;;;;5129711;28;20395;-69
2023/03/27 10:28:27;;;;;;;;;;;5.90;83.90;;;;;;5133844;28;19915;-70
2023/03/27 10:31:01;;;;;;;;;;;5.70;84.70;;;;;;5133769;28;19923;-70
2023/03/27 10:33:28;;;;;;;;;;;5.70;85.00;;;;;;5133757;28;19922;-69
2023/03/27 10:35:55;;;;;;;;;;;5.80;85.00;;;;;;5133676;28;19923;-69
2023/03/27 10:38:21;;;;;;;;;;;5.80;84.80;;;;;;5133655;28;19921;-69
2023/03/27 10:40:48;;;;;;;;;;;5.90;84.60;;;;;;5115209;28;19915;-69
2023/03/27 10:43:32;;;;;;;;;;;6.10;84.70;;;;;;5133517;28;19994;-70
2023/03/27 10:45:59;;;;;;;;;;;6.20;84.30;;;;;;5133515;28;19945;-69
2023/03/27 10:48:32;;;;;;;;;;;6.50;84.10;;;;;;5133402;28;19990;-69
2023/03/27 10:51:01;;;;;;;;;;;6.60;83.50;;;;;;5133820;28;19915;-69
2023/03/27 10:53:36;;;;;;;;;;;6.70;82.80;;;;;;5133777;28;19974;-69
2023/03/27 10:56:07;;;;;;;;;;;6.80;82.50;;;;;;5113740;28;19916;-69
2023/03/27 10:58:43;;;;;;;;;;;6.90;82.10;;;;;;5133772;28;19963;-69
2023/03/27 11:01:13;;;;;;;;;;;7.00;81.80;;;;;;5112831;28;20015;-69
2023/03/27 11:03:59;;;;;;;;;;;7.10;81.40;;;;;;5136445;28;19916;-69
2023/03/27 11:06:28;;;;;;;;;;;7.20;81.40;;;;;;5121764;28;19957;-70
2023/03/27 11:09:04;;;;;;;;;;;7.40;81.10;;;;;;5137049;28;19911;-69
2023/03/27 11:11:49;;;;;;;;;;;7.50;80.80;;;;;;5136722;28;20399;-70
2023/03/27 11:14:19;;;;;;;;;;;7.70;80.60;;;;;;5136879;28;20765;-69
2023/03/27 11:16:48;;;;;;;;;;;7.80;80.20;;;;;;5136753;28;19948;-69
2023/03/27 11:19:26;;;;;;;;;;;7.80;80.00;;;;;;5136637;28;19911;-70
2023/03/27 11:21:53;;;;;;;;;;;7.90;79.60;;;;;;5116643;28;19927;-70
2023/03/27 11:24:29;;;;;;;;;;;7.80;79.20;;;;;;5136583;28;19960;-69
2023/03/27 11:27:02;;;;;;;;;;;7.70;79.40;;;;;;5136572;28;19915;-70
2023/03/27 11:29:31;;;;;;;;;;;7.60;79.50;;;;;;5136568;28;19916;-71
2023/03/27 11:32:02;;;;;;;;;;;7.70;79.80;;;;;;5136654;28;19915;-69
2023/03/27 11:34:32;;;;;;;;;;;7.80;79.40;;;;;;5136501;28;19915;-70
2023/03/27 11:37:04;;;;;;;;;;;7.90;79.20;;;;;;5136499;28;20002;-70
2023/03/27 11:39:35;;;;;;;;;;;8.20;79.40;;;;;;5136355;28;20002;-70
2023/03/27 11:42:04;;;;;;;;;;;8.30;79.30;;;;;;5136660;28;19919;-70
2023/03/27 11:44:30;;;;;;;;;;;8.40;78.70;;;;;;5136199;28;20002;-68
2023/03/27 11:47:03;;;;;;;;;;;8.60;78.30;;;;;;5136268;28;19969;-69
2023/03/27 11:49:36;;;;;;;;;;;8.60;77.60;;;;;;5136197;28;19919;-70
2023/03/27 11:52:08;;;;;;;;;;;8.50;77.70;;;;;;5116778;28;19916;-70
2023/03/27 11:54:46;;;;;;;;;;;8.50;77.60;;;;;;5136122;28;19919;-70
2023/03/27 11:57:19;;;;;;;;;;;8.50;77.90;;;;;;5117716;28;20262;-70
2023/03/27 11:59:59;;;;;;;;;;;8.30;78.00;;;;;;5136109;28;19922;-70
2023/03/27 12:02:39;;;;;;;;;;;8.00;78.40;;;;;;5135180;28;19923;-70
2023/03/27 12:05:11;;;;;;;;;;;7.80;79.20;;;;;;5132205;28;19916;-70
2023/03/27 12:07:49;;;;;;;;;;;7.70;79.50;;;;;;5114814;28;20284;-69
2023/03/27 12:10:22;;;;;;;;;;;7.70;79.80;;;;;;5135213;28;19923;-69
2023/03/27 12:13:01;;;;;;;;;;;7.80;79.50;;;;;;5135696;27;19922;-69
2023/03/27 12:15:46;;;;;;;;;;;7.90;79.30;;;;;;5116525;28;19915;-69
2023/03/27 12:18:20;;;;;;;;;;;7.80;79.10;;;;;;5135538;28;19968;-69
2023/03/27 12:21:00;;;;;;;;;;;7.70;79.20;;;;;;5116680;28;20020;-69
2023/03/27 12:23:45;;;;;;;;;;;7.70;79.30;;;;;;5135790;28;19916;-69
2023/03/27 12:26:30;;;;;;;;;;;7.60;79.50;;;;;;5118367;28;20010;-70
2023/03/27 12:29:02;;;;;;;;;;;7.70;79.60;;;;;;5132849;28;19962;-69
2023/03/27 12:31:41;;;;;;;;;;;8.00;78.50;;;;;;5133128;28;19916;-69
2023/03/27 12:34:20;;;;;;;;;;;7.90;77.80;;;;;;5135348;28;19915;-70
2023/03/27 12:36:47;;;;;;;;;;;7.80;77.20;;;;;;5135332;28;19916;-69
2023/03/27 12:39:17;;;;;;;;;;;7.70;77.90;;;;;;5135281;28;19915;-70
2023/03/27 12:41:43;;;;;;;;;;;7.80;77.70;;;;;;5135253;28;19923;-69
2023/03/27 12:44:10;;;;;;;;;;;7.90;78.00;;;;;;5135154;28;19937;-69
2023/03/27 12:46:37;;;;;;;;;;;8.00;77.80;;;;;;5135037;28;19961;-69
2023/03/27 12:49:23;;;;;;;;;;;8.10;77.50;;;;;;5115824;28;19923;-69
2023/03/27 12:52:06;;;;;;;;;;;8.20;77.40;;;;;;5118238;28;19972;-68
2023/03/27 12:54:33;;;;;;;;;;;8.40;77.10;;;;;;5135024;28;20333;-70
2023/03/27 12:57:12;;;;;;;;;;;8.60;76.70;;;;;;5134946;28;19915;-69
2023/03/27 12:59:39;;;;;;;;;;;8.60;76.60;;;;;;5134990;28;19924;-69
2023/03/27 13:02:25;;;;;;;;;;;8.80;76.30;;;;;;5115653;28;19920;-71
2023/03/27 13:04:59;;;;;;;;;;;8.80;76.00;;;;;;5134882;28;19923;-70
2023/03/27 13:07:35;;;;;;;;;;;9.10;75.90;;;;;;5135044;28;19915;-70
2023/03/27 13:10:05;;;;;;;;;;;9.30;75.40;;;;;;5135080;28;19973;-69
2023/03/27 13:12:51;;;;;;;;;;;9.20;74.50;;;;;;5135246;28;19954;-69
2023/03/27 13:15:24;;;;;;;;;;;8.70;73.90;;;;;;5117858;28;19923;-69
2023/03/27 13:17:56;;;;;;;;;;;8.20;76.00;;;;;;5131987;28;20014;-69
2023/03/27 13:20:29;;;;;;;;;;;7.80;76.80;;;;;;5132345;28;19958;-70
2023/03/27 13:23:04;;;;;;;;;;;7.50;77.90;;;;;;5134616;28;19942;-70
2023/03/27 13:25:31;;;;;;;;;;;7.40;78.60;;;;;;5134553;27;20006;-70
2023/03/27 13:28:16;;;;;;;;;;;7.40;78.90;;;;;;5134574;28;19915;-69
2023/03/27 13:30:48;;;;;;;;;;;7.60;78.90;;;;;;5118431;28;19915;-70
2023/03/27 13:33:15;;;;;;;;;;;7.80;78.50;;;;;;5116328;28;19923;-68
2023/03/27 13:35:54;;;;;;;;;;;7.80;77.80;;;;;;5134552;28;19998;-68
2023/03/27 13:38:35;;;;;;;;;;;7.80;77.70;;;;;;5116132;28;19922;-68
2023/03/27 13:41:20;;;;;;;;;;;7.70;77.80;;;;;;5134150;28;19931;-69
2023/03/27 13:43:46;;;;;;;;;;;7.80;77.70;;;;;;5134639;28;20010;-71
2023/03/27 13:46:17;;;;;;;;;;;7.80;77.60;;;;;;5134272;28;19923;-69
2023/03/27 13:48:55;;;;;;;;;;;7.90;77.60;;;;;;5134457;28;20344;-68
2023/03/27 13:51:30;;;;;;;;;;;8.00;77.40;;;;;;5134246;28;19915;-70
2023/03/27 13:54:16;;;;;;;;;;;8.10;77.20;;;;;;5099052;28;19919;-69
2023/03/27 13:56:56;;;;;;;;;;;8.10;76.90;;;;;;5113149;28;19916;-71
2023/03/27 13:59:28;;;;;;;;;;;8.10;76.70;;;;;;5133456;28;19915;-70
2023/03/27 14:02:02;;;;;;;;;;;8.00;76.70;;;;;;5133771;28;19949;-70
2023/03/27 14:04:48;;;;;;;;;;;8.10;76.70;;;;;;5133795;28;19938;-69
2023/03/27 14:07:26;;;;;;;;;;;8.00;76.30;;;;;;5099879;28;19916;-70
2023/03/27 14:10:07;;;;;;;;;;;8.00;76.30;;;;;;5133877;28;19916;-69
2023/03/27 14:12:39;;;;;;;;;;;8.10;76.40;;;;;;5133847;28;19921;-70
2023/03/27 14:15:08;;;;;;;;;;;8.20;76.50;;;;;;5114674;28;19920;-70
2023/03/27 14:17:51;;;;;;;;;;;8.30;76.40;;;;;;5133705;28;19926;-70
2023/03/27 14:20:20;;;;;;;;;;;8.40;76.40;;;;;;5114071;28;19965;-69
2023/03/27 14:22:49;;;;;;;;;;;8.40;76.20;;;;;;5113854;28;19927;-69
2023/03/27 14:25:16;;;;;;;;;;;8.50;76.10;;;;;;5133702;28;19915;-68
2023/03/27 14:27:44;;;;;;;;;;;8.50;75.40;;;;;;5096142;28;19969;-69
2023/03/27 14:30:14;;;;;;;;;;;8.30;75.30;;;;;;5133698;28;19967;-69
2023/03/27 14:32:41;;;;;;;;;;;8.30;75.40;;;;;;5133516;28;19916;-69
2023/03/27 14:35:22;;;;;;;;;;;8.20;75.00;;;;;;5133559;28;20002;-71
2023/03/27 14:37:54;;;;;;;;;;;8.30;75.50;;;;;;5132678;27;19916;-71
2023/03/27 14:40:24;;;;;;;;;;;8.30;75.70;;;;;;5133883;28;19922;-71
2023/03/27 14:42:50;;;;;;;;;;;8.30;75.80;;;;;;5133564;28;19923;-71
2023/03/27 14:45:20;;;;;;;;;;;8.40;75.60;;;;;;5134174;28;20352;-70